Portada
METAR-TAF:

METAR-TAF

Aeropuertos :

Aeropuerto Internacional Netaji Subhas Chandra Bose

Calcuta, India

latitud: 22-39N, longitud: 088-27E, altitud: 4 m

Observación

El informe se hizo hace 18 minutos, a las 19:00 UTC
Viento 3 kt del sur
Temperatura 33°C
Humedad 67%
Presión 998 hPa
Visibilidad: 3200 m
Escasas nubes a una altura de 2000 ft
calima

METAR: VECC 181900Z 18003KT 3200 HZ FEW020 33/26 Q0998 NOSIG

Hora: 00:48 (19:18 UTC)

Pronóstico

El informe se hizo hace 5 horas y 18 minutos, a las 14:00 UTC
Pronóstico válido del 18 a las 15 UTC al 18 a las 24 UTC
Viento 6 kt del sur-sureste
Visibilidad: 3200 m
Escasas nubes a una altura de 2000 ft
calima
Evolucionando progresivamente
del 18 a las 20 UTC al 18 a las 22 UTC
Visibilidad: 2800 m
calima

TAF: VECC 181400Z 1815/1824 16006KT 3200 HZ FEW020 BECMG 1820/1822 2800 HZ

Observaciones y pronósticos meteorológicos de más de 4000 aeropuertos (mensajes METAR y TAF).

Los puntos amarillos y rojos representan las estaciones disponibles.

Ponga el ratón en el punto deseado para ver el nombre de la estación.

Haga clic para ver las observaciones y los pronósticos meteorológicos.

Para cambiar el mapa : haga clic en los botones verdes con una cruz de color negro para hacer un zoom, en el botón verde con un guión para alejar o en las flechas verdes para mapas adyacentes.


METAR-TAF: